Time;durP1;ratioP1;P1;durP2;ratioP2;P2;SDS_P1;SDS_P2;PMS_P1;PMS_P2;Temp;Humidity;BMP_temperature;BMP_pressure;BME280_temperature;BME280_humidity;BME280_pressure;Samples;Min_cycle;Max_cycle;Signal;HPM_P1;HPM_P2
2023/06/04 05:38:00;;;;;;;0.88;0.85;;;15.50;79.30;;;;;;4993142;28;20431;-56
2023/06/04 05:40:26;;;;;;;3.35;0.75;;;15.50;78.90;;;;;;4974204;28;20043;-52
2023/06/04 05:42:52;;;;;;;1.20;0.80;;;15.70;78.50;;;;;;5001493;28;20478;-54
2023/06/04 05:45:18;;;;;;;0.55;0.40;;;15.80;77.90;;;;;;4980118;28;20041;-55
2023/06/04 05:47:44;;;;;;;1.60;0.65;;;16.00;77.90;;;;;;5004939;28;20045;-56
2023/06/04 05:50:09;;;;;;;3.92;0.60;;;16.00;77.70;;;;;;4989753;28;20038;-56
2023/06/04 05:52:36;;;;;;;1.45;0.85;;;16.10;77.00;;;;;;5002080;28;20539;-55
2023/06/04 05:55:02;;;;;;;1.15;0.60;;;16.10;77.20;;;;;;4987451;28;20042;-55
2023/06/04 05:57:28;;;;;;;1.50;0.82;;;16.10;77.30;;;;;;5002521;28;20029;-53
2023/06/04 05:59:53;;;;;;;1.00;0.50;;;16.30;76.40;;;;;;4991096;28;20042;-54
2023/06/04 06:02:19;;;;;;;1.90;0.43;;;16.40;76.40;;;;;;4987489;28;20125;-57
2023/06/04 06:04:45;;;;;;;1.50;0.52;;;16.50;75.20;;;;;;4971034;28;20101;-55
2023/06/04 06:07:11;;;;;;;1.90;0.77;;;16.70;74.40;;;;;;4991730;28;20027;-55
2023/06/04 06:09:37;;;;;;;0.95;0.50;;;17.10;73.30;;;;;;4991179;28;20038;-54
2023/06/04 06:12:05;;;;;;;0.93;0.60;;;16.80;72.80;;;;;;4992004;28;20038;-56
2023/06/04 06:14:31;;;;;;;0.82;0.40;;;16.90;73.50;;;;;;4998995;28;20056;-54
2023/06/04 06:16:57;;;;;;;0.63;0.40;;;16.90;73.30;;;;;;4983148;28;20034;-57
2023/06/04 06:19:23;;;;;;;1.90;0.68;;;17.00;74.00;;;;;;4996992;28;20485;-52
2023/06/04 06:21:49;;;;;;;1.00;0.52;;;17.20;73.10;;;;;;4947432;28;20098;-55
2023/06/04 06:24:15;;;;;;;1.35;0.55;;;17.30;72.20;;;;;;4988170;28;20033;-52
2023/06/04 06:26:42;;;;;;;1.85;0.77;;;17.40;72.60;;;;;;4990342;28;20037;-57
2023/06/04 06:29:08;;;;;;;1.88;0.88;;;17.40;72.60;;;;;;4987512;28;20065;-57
2023/06/04 06:31:34;;;;;;;1.27;0.60;;;17.60;72.30;;;;;;4988752;28;20058;-58
2023/06/04 06:34:00;;;;;;;0.52;0.40;;;17.90;72.10;;;;;;4972870;28;20038;-54
2023/06/04 06:36:26;;;;;;;0.98;0.50;;;17.90;71.80;;;;;;4989536;28;20026;-55
2023/06/04 06:38:52;;;;;;;0.65;0.50;;;17.70;71.60;;;;;;4989946;28;20486;-57
2023/06/04 06:41:18;;;;;;;1.27;0.60;;;17.90;71.90;;;;;;4987942;28;20035;-54
2023/06/04 06:43:44;;;;;;;2.83;1.23;;;18.10;71.20;;;;;;4988749;28;20026;-54
2023/06/04 06:46:10;;;;;;;2.33;0.65;;;18.10;70.80;;;;;;4988343;28;20490;-56
2023/06/04 06:48:36;;;;;;;1.45;0.57;;;18.20;70.80;;;;;;4990465;28;20466;-55
2023/06/04 06:51:02;;;;;;;1.80;0.88;;;17.80;70.90;;;;;;4984797;28;20088;-54
2023/06/04 06:53:28;;;;;;;1.40;0.80;;;18.00;71.40;;;;;;4972713;28;20026;-57
2023/06/04 06:55:54;;;;;;;2.67;0.88;;;18.10;71.10;;;;;;4983947;28;20034;-50
2023/06/04 06:58:23;;;;;;;2.15;0.77;;;18.40;71.40;;;;;;4991094;28;20072;-52
2023/06/04 07:00:49;;;;;;;2.38;0.90;;;18.60;69.80;;;;;;4983979;28;20026;-58
2023/06/04 07:03:15;;;;;;;1.27;0.88;;;18.60;69.10;;;;;;4990738;28;20429;-58
2023/06/04 07:05:41;;;;;;;1.65;0.60;;;18.80;69.30;;;;;;4986773;28;20366;-57
2023/06/04 07:08:07;;;;;;;5.57;0.85;;;18.60;69.10;;;;;;4988705;28;20049;-58
2023/06/04 07:10:33;;;;;;;3.20;1.00;;;18.80;69.40;;;;;;4987707;28;20033;-65
2023/06/04 07:12:59;;;;;;;2.13;0.70;;;18.90;69.50;;;;;;4988750;28;20034;-67
2023/06/04 07:15:25;;;;;;;3.75;0.98;;;19.10;69.50;;;;;;4984276;28;20042;-65
2023/06/04 07:17:51;;;;;;;2.47;0.73;;;19.20;68.40;;;;;;4986088;28;20038;-66
2023/06/04 07:20:17;;;;;;;2.58;0.60;;;19.30;68.00;;;;;;4985790;28;20022;-66
2023/06/04 07:22:43;;;;;;;6.28;1.00;;;19.20;68.00;;;;;;4987430;28;20036;-66
2023/06/04 07:25:09;;;;;;;3.33;1.60;;;19.30;68.60;;;;;;4986371;28;20034;-65
2023/06/04 07:27:35;;;;;;;0.52;0.40;;;19.30;68.60;;;;;;4972884;28;20034;-66
2023/06/04 07:30:01;;;;;;;0.88;0.50;;;19.30;68.30;;;;;;4987328;28;20401;-65
2023/06/04 07:32:27;;;;;;;1.20;0.60;;;19.50;68.10;;;;;;4989014;28;20665;-66
2023/06/04 07:34:54;;;;;;;4.78;0.80;;;19.60;68.10;;;;;;4987294;28;20038;-65
2023/06/04 07:37:20;;;;;;;2.67;0.90;;;19.60;67.50;;;;;;4988325;28;20031;-64
2023/06/04 07:39:46;;;;;;;1.83;0.95;;;19.60;67.50;;;;;;4987218;28;20033;-66
2023/06/04 07:42:12;;;;;;;1.33;0.68;;;19.80;67.60;;;;;;4971551;28;20031;-66
2023/06/04 07:44:38;;;;;;;2.15;0.77;;;19.70;67.20;;;;;;4970172;28;20438;-66
2023/06/04 07:47:05;;;;;;;3.47;0.73;;;19.60;68.10;;;;;;4972255;28;20116;-65
2023/06/04 07:49:31;;;;;;;1.55;0.63;;;19.90;67.70;;;;;;4972732;28;20504;-66
2023/06/04 07:51:57;;;;;;;0.70;0.40;;;20.10;67.50;;;;;;4988527;28;20042;-66
2023/06/04 07:54:23;;;;;;;2.97;0.90;;;20.30;67.40;;;;;;4987300;28;20986;-66
2023/06/04 07:56:55;;;;;;;1.63;0.75;;;20.60;67.10;;;;;;4988641;28;20042;-66
2023/06/04 07:59:23;;;;;;;1.20;0.50;;;20.30;66.30;;;;;;4988635;28;20037;-66
2023/06/04 08:01:51;;;;;;;1.92;0.60;;;20.40;66.40;;;;;;4971520;28;20123;-66
2023/06/04 08:04:18;;;;;;;1.00;0.60;;;20.30;66.70;;;;;;4971507;28;20045;-65
2023/06/04 08:06:44;;;;;;;1.25;0.52;;;20.40;66.40;;;;;;4979654;28;20030;-66
2023/06/04 08:09:10;;;;;;;2.08;0.57;;;20.30;66.70;;;;;;4987362;28;20041;-66
2023/06/04 08:11:36;;;;;;;1.15;0.68;;;20.50;67.20;;;;;;4986918;28;20036;-66
2023/06/04 08:14:01;;;;;;;4.13;1.00;;;20.60;66.70;;;;;;4989275;28;20058;-66
2023/06/04 08:16:27;;;;;;;2.85;0.68;;;20.70;66.60;;;;;;4969762;28;20105;-65
2023/06/04 08:18:53;;;;;;;1.17;0.45;;;20.90;66.40;;;;;;4990170;28;20073;-65
2023/06/04 08:21:28;;;;;;;3.88;1.17;;;20.90;65.10;;;;;;4985292;28;20030;-65
2023/06/04 08:23:55;;;;;;;2.53;1.33;;;20.90;65.90;;;;;;4989640;28;20050;-66
2023/06/04 08:26:21;;;;;;;1.52;0.63;;;21.00;65.90;;;;;;4984645;28;20122;-66
2023/06/04 08:28:51;;;;;;;3.60;0.85;;;21.10;66.10;;;;;;4990186;28;20034;-65
2023/06/04 08:31:17;;;;;;;3.83;1.23;;;21.20;66.00;;;;;;4985208;28;20502;-66
2023/06/04 08:33:46;;;;;;;2.50;0.73;;;21.30;66.00;;;;;;4991618;28;20486;-65
2023/06/04 08:36:12;;;;;;;2.55;1.02;;;21.10;65.90;;;;;;4988852;28;20030;-65
2023/06/04 08:38:38;;;;;;;1.45;1.00;;;21.20;67.10;;;;;;4993661;28;20105;-66
2023/06/04 08:41:21;;;;;;;1.15;0.63;;;21.30;66.00;;;;;;4988620;28;20152;-66
2023/06/04 08:43:49;;;;;;;5.20;0.70;;;21.40;66.30;;;;;;4975873;28;20027;-66
2023/06/04 08:46:17;;;;;;;2.58;0.75;;;21.40;65.80;;;;;;4972204;28;20031;-67
2023/06/04 08:48:44;;;;;;;0.57;0.50;;;21.70;65.60;;;;;;4976522;28;20030;-66
2023/06/04 08:51:11;;;;;;;2.20;0.80;;;21.80;65.70;;;;;;4989334;28;20026;-66
2023/06/04 08:53:37;;;;;;;5.22;0.50;;;21.90;64.40;;;;;;4975229;28;20463;-64
2023/06/04 08:56:03;;;;;;;1.58;0.57;;;22.00;64.60;;;;;;4971505;28;20101;-65
2023/06/04 08:58:35;;;;;;;1.48;0.57;;;22.20;65.00;;;;;;4975974;28;20051;-65
2023/06/04 09:01:02;;;;;;;5.40;1.08;;;22.20;63.80;;;;;;4988260;28;20033;-65
2023/06/04 09:03:32;;;;;;;0.68;0.40;;;22.40;63.30;;;;;;4993043;28;20060;-65
2023/06/04 09:05:59;;;;;;;3.05;0.90;;;22.40;62.80;;;;;;4988972;28;20022;-65
2023/06/04 09:08:27;;;;;;;1.63;0.70;;;22.50;62.70;;;;;;4992877;28;20504;-67
2023/06/04 09:10:55;;;;;;;2.20;0.63;;;22.50;62.70;;;;;;4971966;28;20027;-69
2023/06/04 09:13:27;;;;;;;4.32;1.20;;;22.80;63.40;;;;;;4975139;28;20101;-67
2023/06/04 09:16:03;;;;;;;4.18;0.70;;;23.00;62.70;;;;;;4989222;28;20026;-65
2023/06/04 09:18:30;;;;;;;0.70;0.40;;;23.00;62.30;;;;;;4992525;28;20031;-64
2023/06/04 09:21:08;;;;;;;1.77;0.82;;;23.00;61.60;;;;;;4988778;28;20027;-65
2023/06/04 09:23:52;;;;;;;2.03;0.65;;;23.20;61.70;;;;;;4985885;28;20068;-65
2023/06/04 09:26:18;;;;;;;0.88;0.50;;;23.30;61.50;;;;;;4987862;28;20022;-64
2023/06/04 09:28:46;;;;;;;0.98;0.70;;;23.30;61.20;;;;;;4992749;28;20034;-64
2023/06/04 09:31:16;;;;;;;2.63;0.52;;;23.40;61.10;;;;;;4962712;28;20023;-64
2023/06/04 09:33:50;;;;;;;1.33;0.60;;;23.40;60.70;;;;;;4974405;28;20073;-64
2023/06/04 09:36:16;;;;;;;1.25;0.40;;;23.50;60.90;;;;;;4972754;28;20058;-65
2023/06/04 09:38:43;;;;;;;1.83;0.77;;;23.80;60.70;;;;;;4991341;28;20096;-65
2023/06/04 09:41:14;;;;;;;0.95;0.50;;;24.00;58.50;;;;;;4970159;28;20042;-66
2023/06/04 09:43:40;;;;;;;1.90;0.75;;;24.20;58.70;;;;;;4974452;28;20485;-65
2023/06/04 09:46:17;;;;;;;2.65;0.80;;;24.50;58.50;;;;;;4969736;28;20142;-65
2023/06/04 09:48:44;;;;;;;1.00;0.40;;;24.70;58.40;;;;;;4963452;28;20205;-65
2023/06/04 09:51:18;;;;;;;1.38;0.50;;;24.90;56.60;;;;;;4988312;28;20050;-64
2023/06/04 09:53:55;;;;;;;5.47;1.02;;;24.90;55.70;;;;;;4975079;28;20014;-64
2023/06/04 09:56:21;;;;;;;3.38;0.60;;;25.20;54.90;;;;;;4971923;28;20092;-65
2023/06/04 09:58:50;;;;;;;0.77;0.40;;;25.30;55.10;;;;;;4992279;28;20473;-65
2023/06/04 10:01:16;;;;;;;1.00;0.52;;;25.30;55.10;;;;;;4987136;28;20070;-65
2023/06/04 10:03:50;;;;;;;1.42;0.52;;;25.40;53.30;;;;;;4974712;28;20018;-65
2023/06/04 10:06:21;;;;;;;1.80;0.70;;;25.10;52.00;;;;;;4971285;28;20098;-65
2023/06/04 10:08:49;;;;;;;3.30;0.70;;;24.90;52.70;;;;;;4974763;28;20029;-65
2023/06/04 10:11:22;;;;;;;1.23;0.75;;;25.00;52.80;;;;;;4987088;28;20027;-66
2023/06/04 10:14:12;;;;;;;2.63;1.42;;;24.70;52.90;;;;;;4983881;28;20615;-66
2023/06/04 10:16:39;;;;;;;5.78;0.75;;;24.60;52.60;;;;;;4988646;28;20023;-65
2023/06/04 10:19:08;;;;;;;5.43;0.85;;;24.60;54.30;;;;;;4956852;28;20402;-65
2023/06/04 10:21:37;;;;;;;1.55;0.70;;;24.70;53.90;;;;;;4989490;28;20034;-64
2023/06/04 10:24:03;;;;;;;2.65;0.80;;;24.90;54.40;;;;;;4956972;28;20041;-64
2023/06/04 10:26:30;;;;;;;0.77;0.40;;;25.00;52.90;;;;;;4970058;28;20022;-65
2023/06/04 10:28:57;;;;;;;1.45;0.60;;;25.10;53.30;;;;;;4986241;28;20052;-63
2023/06/04 10:31:23;;;;;;;1.27;0.50;;;25.30;52.30;;;;;;4984495;28;20053;-64
2023/06/04 10:33:55;;;;;;;1.15;0.63;;;25.30;52.80;;;;;;4973071;28;20731;-65
2023/06/04 10:36:23;;;;;;;1.40;0.52;;;25.60;52.10;;;;;;4971426;28;20034;-64
2023/06/04 10:38:55;;;;;;;0.98;0.47;;;26.00;53.00;;;;;;4973321;28;20037;-65
2023/06/04 10:41:25;;;;;;;9.70;1.10;;;26.30;51.40;;;;;;4988514;28;20045;-64
2023/06/04 10:44:01;;;;;;;13.00;1.15;;;26.60;51.90;;;;;;4972978;28;20031;-64
2023/06/04 10:46:41;;;;;;;2.90;0.82;;;26.80;49.60;;;;;;4988967;28;20105;-64
2023/06/04 10:49:40;;;;;;;1.23;0.60;;;26.70;50.60;;;;;;4972768;28;20153;-64
2023/06/04 10:52:12;;;;;;;2.08;0.60;;;26.60;48.90;;;;;;4950026;29;20040;-66
2023/06/04 10:54:43;;;;;;;1.73;0.68;;;26.60;50.60;;;;;;4981708;28;20046;-64
2023/06/04 10:57:36;;;;;;;2.60;1.10;;;26.50;50.00;;;;;;4990601;28;20026;-64
2023/06/04 11:00:09;;;;;;;3.10;0.80;;;26.70;50.10;;;;;;4984845;28;20034;-64
2023/06/04 11:03:12;;;;;;;1.73;0.50;;;27.00;49.80;;;;;;4989408;28;20034;-65
2023/06/04 11:05:47;;;;;;;1.50;0.77;;;27.30;48.60;;;;;;4909043;29;20048;-65
2023/06/04 11:09:16;;;;;;;1.70;1.00;;;27.00;49.90;;;;;;4911018;29;20123;-65
2023/06/04 11:13:22;;;;;;;2.50;0.70;;;26.80;49.20;;;;;;4870996;29;20067;-65
2023/06/04 11:15:48;;;;;;;0.82;0.50;;;26.80;50.00;;;;;;4806444;29;20530;-65
2023/06/04 11:18:28;;;;;;;1.48;0.63;;;27.00;49.10;;;;;;4853235;29;20089;-65
2023/06/04 11:21:28;;;;;;;2.22;0.68;;;27.20;49.00;;;;;;4854405;29;20034;-65
2023/06/04 11:24:00;;;;;;;2.20;0.98;;;27.20;48.50;;;;;;4832144;29;20057;-65
2023/06/04 11:27:35;;;;;;;4.47;0.88;;;27.10;49.00;;;;;;4854695;29;20075;-65
2023/06/04 11:30:16;;;;;;;6.75;1.50;;;26.90;48.50;;;;;;4802103;29;20115;-66
2023/06/04 11:33:13;;;;;;;3.20;0.73;;;27.20;48.10;;;;;;4789159;29;20043;-64
2023/06/04 11:36:33;;;;;;;1.55;0.55;;;27.50;47.90;;;;;;4799430;29;20055;-63
2023/06/04 11:39:18;;;;;;;1.30;0.50;;;27.10;48.80;;;;;;4791659;29;20093;-64
2023/06/04 11:41:45;;;;;;;1.23;0.68;;;27.40;49.20;;;;;;4795244;29;20111;-64
2023/06/04 11:45:16;;;;;;;2.65;0.73;;;27.20;48.10;;;;;;4817560;29;20056;-64
2023/06/04 11:47:55;;;;;;;0.95;0.57;;;27.60;48.60;;;;;;4826580;29;20046;-64
2023/06/04 11:50:29;;;;;;;1.95;0.90;;;27.90;47.80;;;;;;4824707;29;20050;-65
2023/06/04 11:52:55;;;;;;;1.55;0.70;;;27.80;47.20;;;;;;4848335;29;20908;-64
2023/06/04 11:55:25;;;;;;;3.92;0.70;;;27.80;47.40;;;;;;4862104;29;20096;-63
2023/06/04 11:58:09;;;;;;;1.52;0.70;;;28.10;47.10;;;;;;4865433;29;20040;-64
2023/06/04 12:01:18;;;;;;;4.15;0.90;;;28.20;46.50;;;;;;4861120;29;20493;-64
2023/06/04 12:03:44;;;;;;;3.95;0.63;;;28.10;46.70;;;;;;4868024;29;20037;-64
2023/06/04 12:10:08;;;;;;;2.17;1.00;;;28.40;46.70;;;;;;4841705;29;20044;-64
2023/06/04 12:12:41;;;;;;;1.17;0.77;;;28.10;47.40;;;;;;4842123;29;20041;-64
2023/06/04 12:15:09;;;;;;;1.50;0.70;;;28.00;47.20;;;;;;4884627;29;20047;-64
2023/06/04 12:17:54;;;;;;;1.95;0.60;;;28.40;46.60;;;;;;4933784;29;20059;-65
2023/06/04 12:20:41;;;;;;;3.28;0.75;;;28.30;46.00;;;;;;4912800;29;20633;-63
2023/06/04 12:23:53;;;;;;;2.15;0.77;;;28.00;46.20;;;;;;4920095;29;20086;-64
2023/06/04 12:26:28;;;;;;;1.80;0.75;;;28.50;47.00;;;;;;4872145;29;20045;-64
2023/06/04 12:29:23;;;;;;;1.33;0.70;;;28.30;46.50;;;;;;4877285;29;20816;-64
2023/06/04 12:31:49;;;;;;;3.15;1.27;;;28.30;46.60;;;;;;4830546;29;20534;-65
2023/06/04 12:34:18;;;;;;;1.52;0.65;;;28.80;46.30;;;;;;4875526;29;20056;-64
2023/06/04 12:36:44;;;;;;;2.28;0.90;;;28.60;45.80;;;;;;4860774;29;20055;-64
2023/06/04 12:39:15;;;;;;;0.93;0.55;;;28.70;45.10;;;;;;4880683;29;20465;-63
2023/06/04 12:41:47;;;;;;;0.98;0.52;;;28.60;45.50;;;;;;4912543;29;20090;-64
2023/06/04 12:44:15;;;;;;;1.92;1.02;;;28.70;46.70;;;;;;4913601;29;20468;-64
2023/06/04 12:46:50;;;;;;;0.98;0.50;;;29.00;45.60;;;;;;4895990;29;20427;-65
2023/06/04 12:49:19;;;;;;;3.40;0.88;;;29.50;45.80;;;;;;4913667;29;21027;-63
2023/06/04 12:52:38;;;;;;;3.28;1.60;;;29.20;45.80;;;;;;4913886;29;20051;-64
2023/06/04 12:55:10;;;;;;;1.85;1.00;;;29.10;45.10;;;;;;4896072;29;20058;-64
2023/06/04 12:57:36;;;;;;;2.35;0.47;;;29.60;44.70;;;;;;4973740;28;20038;-64
2023/06/04 13:01:33;;;;;;;1.58;0.68;;;29.00;44.30;;;;;;4972305;28;20031;-65
2023/06/04 13:04:14;;;;;;;3.40;0.45;;;29.30;44.70;;;;;;4851551;29;20487;-65
2023/06/04 13:06:46;;;;;;;0.98;0.60;;;28.80;45.40;;;;;;4853047;29;20037;-63
2023/06/04 13:09:22;;;;;;;1.13;0.60;;;29.40;45.80;;;;;;4857027;29;20049;-64
2023/06/04 13:13:07;;;;;;;2.05;0.95;;;29.20;45.30;;;;;;4842015;29;20442;-65
2023/06/04 13:19:35;;;;;;;1.30;0.50;;;30.20;43.90;;;;;;4791957;29;20042;-65
2023/06/04 13:22:10;;;;;;;2.13;0.73;;;29.80;43.80;;;;;;4835942;29;20550;-65
2023/06/04 13:25:20;;;;;;;0.65;0.43;;;30.00;43.20;;;;;;4828760;29;20050;-64
2023/06/04 13:28:04;;;;;;;2.47;0.75;;;30.40;43.10;;;;;;4822282;29;20050;-64
2023/06/04 13:30:39;;;;;;;2.17;0.60;;;30.00;42.80;;;;;;4832575;29;20041;-63
2023/06/04 13:33:14;;;;;;;2.13;0.47;;;29.20;42.00;;;;;;4834765;29;20045;-64
2023/06/04 13:36:18;;;;;;;2.28;0.77;;;29.30;43.30;;;;;;4829664;29;20054;-63
2023/06/04 13:39:10;;;;;;;1.35;0.75;;;29.30;42.40;;;;;;4807429;29;20488;-64
2023/06/04 13:42:03;;;;;;;4.18;1.10;;;29.90;42.60;;;;;;4870360;29;20048;-64
2023/06/04 13:45:10;;;;;;;3.40;0.70;;;30.20;42.70;;;;;;4851526;29;20045;-64
2023/06/04 13:47:55;;;;;;;1.88;0.63;;;29.80;42.70;;;;;;4832394;29;20162;-64
2023/06/04 13:50:29;;;;;;;1.42;0.50;;;32.10;41.10;;;;;;4822543;29;20523;-64
2023/06/04 13:53:33;;;;;;;0.80;0.40;;;31.60;41.80;;;;;;4894403;29;20510;-65
2023/06/04 13:56:39;;;;;;;1.50;0.57;;;31.70;41.40;;;;;;4898254;29;20142;-64
2023/06/04 13:59:11;;;;;;;1.08;0.60;;;32.70;39.90;;;;;;4898704;29;20055;-65
2023/06/04 14:02:05;;;;;;;1.60;0.57;;;33.80;39.40;;;;;;4897549;29;20050;-64
2023/06/04 14:04:33;;;;;;;1.42;0.45;;;33.40;38.20;;;;;;4897974;29;20096;-65
2023/06/04 14:07:06;;;;;;;0.38;0.20;;;33.50;38.30;;;;;;4902240;29;20040;-64
2023/06/04 14:09:31;;;;;;;0.98;0.47;;;33.70;37.80;;;;;;4900082;29;20063;-64
2023/06/04 14:12:31;;;;;;;1.70;0.70;;;32.50;37.30;;;;;;4934777;29;20172;-64
2023/06/04 14:15:01;;;;;;;1.02;0.45;;;29.90;38.30;;;;;;4932180;29;20044;-64
2023/06/04 14:17:34;;;;;;;0.85;0.55;;;32.40;39.40;;;;;;4932731;29;20470;-64
2023/06/04 14:20:00;;;;;;;1.63;0.73;;;33.40;37.90;;;;;;4936215;29;20099;-64
2023/06/04 14:22:31;;;;;;;1.05;0.50;;;34.40;37.10;;;;;;4916638;29;20035;-63
2023/06/04 14:25:12;;;;;;;3.75;0.40;;;32.70;37.10;;;;;;4935665;29;20530;-63
2023/06/04 14:27:47;;;;;;;0.65;0.30;;;32.90;37.50;;;;;;4932342;29;20188;-63
2023/06/04 14:34:08;;;;;;;2.47;0.40;;;33.30;38.10;;;;;;4870993;29;20501;-64
2023/06/04 14:37:50;;;;;;;1.10;0.57;;;34.80;36.80;;;;;;4857260;29;20513;-64
2023/06/04 14:40:18;;;;;;;1.23;0.50;;;34.30;35.20;;;;;;4908080;29;20094;-63
2023/06/04 14:43:14;;;;;;;1.35;0.55;;;33.30;36.00;;;;;;4906547;29;20035;-64
2023/06/04 14:45:40;;;;;;;1.00;0.45;;;33.20;36.90;;;;;;4908425;29;20063;-63
2023/06/04 14:48:27;;;;;;;1.05;0.50;;;34.30;35.70;;;;;;4894588;29;20504;-65
2023/06/04 14:50:59;;;;;;;1.35;0.60;;;34.50;35.70;;;;;;4902233;29;20056;-63
2023/06/04 14:54:26;;;;;;;0.77;0.30;;;33.50;36.10;;;;;;4886244;29;20096;-63
2023/06/04 14:56:54;;;;;;;3.28;0.60;;;33.40;36.70;;;;;;4810890;29;20058;-63
2023/06/04 14:59:20;;;;;;;0.67;0.40;;;33.90;36.50;;;;;;4834273;29;20060;-63
2023/06/04 15:04:54;;;;;;;0.63;0.30;;;33.70;37.20;;;;;;5471370;23;20108;-62
2023/06/04 15:07:19;;;;;;;2.63;0.80;;;33.60;36.20;;;;;;4964945;28;20036;-62
2023/06/04 15:09:47;;;;;;;0.98;0.50;;;34.30;35.60;;;;;;4973875;28;20054;-61
2023/06/04 15:12:16;;;;;;;10.10;1.00;;;32.40;37.30;;;;;;4975251;28;20026;-62
2023/06/04 15:14:42;;;;;;;3.92;0.60;;;34.60;36.40;;;;;;4962631;28;20026;-62
2023/06/04 15:17:09;;;;;;;1.60;0.52;;;34.40;35.60;;;;;;4959603;28;20039;-61
2023/06/04 15:19:35;;;;;;;3.05;0.63;;;35.40;35.70;;;;;;4957573;28;20027;-62
2023/06/04 15:22:00;;;;;;;1.75;0.40;;;35.40;35.10;;;;;;4957502;28;20540;-62
2023/06/04 15:24:26;;;;;;;2.55;0.73;;;35.40;35.30;;;;;;4952896;28;20569;-62
2023/06/04 15:26:52;;;;;;;2.00;1.05;;;35.20;35.10;;;;;;4965564;28;22232;-62
2023/06/04 15:29:18;;;;;;;1.38;0.90;;;33.50;35.20;;;;;;4962676;28;20066;-60
2023/06/04 15:31:43;;;;;;;2.63;0.80;;;33.90;35.80;;;;;;4956165;28;20047;-61
2023/06/04 15:34:09;;;;;;;1.33;0.60;;;34.30;35.10;;;;;;4970504;28;20039;-61
2023/06/04 15:36:37;;;;;;;0.32;0.30;;;34.50;35.70;;;;;;4965740;28;20354;-60
2023/06/04 15:39:03;;;;;;;2.00;0.40;;;34.60;35.30;;;;;;4951524;28;20042;-62
2023/06/04 15:41:28;;;;;;;2.08;0.95;;;35.60;35.60;;;;;;4964316;28;20023;-62
2023/06/04 15:43:54;;;;;;;1.20;0.50;;;35.00;35.70;;;;;;4969378;28;20038;-62
2023/06/04 15:46:24;;;;;;;1.40;0.50;;;34.10;36.00;;;;;;4962452;28;20081;-62
2023/06/04 15:48:49;;;;;;;1.73;0.35;;;34.50;35.80;;;;;;4936400;28;20027;-62
2023/06/04 15:51:15;;;;;;;1.60;0.60;;;34.60;36.40;;;;;;4963406;28;20081;-62
2023/06/04 15:53:41;;;;;;;2.00;0.52;;;33.90;35.90;;;;;;4926284;28;20050;-62
2023/06/04 15:56:06;;;;;;;0.82;0.43;;;35.60;35.80;;;;;;4940197;29;20039;-60
2023/06/04 15:58:32;;;;;;;4.03;1.33;;;35.00;34.60;;;;;;4933585;29;20163;-61
2023/06/04 16:00:58;;;;;;;2.95;0.70;;;35.10;35.20;;;;;;4941825;29;20024;-61
2023/06/04 16:03:24;;;;;;;0.95;0.70;;;35.20;35.20;;;;;;4950682;29;20081;-61
2023/06/04 16:05:49;;;;;;;0.80;0.40;;;34.60;34.90;;;;;;4934167;29;20046;-61
2023/06/04 16:08:15;;;;;;;1.02;0.60;;;34.30;34.70;;;;;;4948023;29;20046;-62
2023/06/04 16:10:41;;;;;;;3.75;0.90;;;34.80;35.20;;;;;;4944706;29;20039;-61
2023/06/04 16:13:07;;;;;;;1.80;0.55;;;33.80;36.30;;;;;;4944688;29;20180;-61
2023/06/04 16:15:33;;;;;;;2.20;0.68;;;34.20;35.40;;;;;;4948859;29;20041;-61
2023/06/04 16:17:58;;;;;;;0.60;0.30;;;35.10;35.50;;;;;;4949815;29;20111;-61
2023/06/04 16:20:25;;;;;;;1.48;0.60;;;34.00;35.30;;;;;;4946788;29;20028;-61
2023/06/04 16:22:51;;;;;;;6.78;1.15;;;34.70;35.10;;;;;;4939580;29;20074;-61
2023/06/04 16:25:17;;;;;;;1.17;0.55;;;33.60;35.60;;;;;;4926341;29;20469;-61
2023/06/04 16:27:47;;;;;;;1.90;0.60;;;34.10;35.70;;;;;;4940096;29;20035;-61
2023/06/04 16:30:13;;;;;;;1.80;0.70;;;35.20;35.50;;;;;;4938300;29;20046;-61
2023/06/04 16:32:40;;;;;;;1.83;0.60;;;36.20;34.90;;;;;;4931431;29;20493;-60
2023/06/04 16:35:07;;;;;;;3.00;0.70;;;35.60;34.90;;;;;;4948848;29;20509;-61
2023/06/04 16:37:33;;;;;;;0.80;0.52;;;34.40;34.30;;;;;;4948238;29;20027;-61
2023/06/04 16:39:59;;;;;;;1.38;0.93;;;33.50;35.60;;;;;;4950069;29;20078;-63
2023/06/04 16:42:25;;;;;;;1.35;0.68;;;35.10;35.00;;;;;;4948804;29;20478;-62
2023/06/04 16:44:51;;;;;;;1.13;0.68;;;35.80;34.50;;;;;;4947257;29;20110;-62
2023/06/04 16:47:17;;;;;;;1.15;0.55;;;35.50;34.20;;;;;;4942318;29;20031;-62
2023/06/04 16:49:44;;;;;;;2.13;0.40;;;35.40;34.10;;;;;;4949950;29;20035;-62
2023/06/04 16:52:09;;;;;;;2.25;0.90;;;34.30;34.40;;;;;;4930286;29;20491;-62
2023/06/04 16:54:35;;;;;;;1.50;0.60;;;35.30;34.50;;;;;;4934083;29;20082;-61
2023/06/04 16:57:01;;;;;;;2.35;0.80;;;35.50;34.30;;;;;;4951803;29;20695;-61
2023/06/04 16:59:29;;;;;;;0.95;0.47;;;35.40;34.60;;;;;;4954473;29;20055;-61
2023/06/04 17:01:56;;;;;;;1.23;0.40;;;33.80;34.80;;;;;;4946798;29;20463;-61
2023/06/04 17:04:23;;;;;;;1.60;0.90;;;33.50;34.20;;;;;;4954515;29;20034;-62
2023/06/04 17:06:48;;;;;;;1.90;1.05;;;32.90;35.20;;;;;;4949715;29;21034;-62
2023/06/04 17:09:14;;;;;;;5.40;0.80;;;32.90;34.10;;;;;;4954873;29;20078;-62
2023/06/04 17:11:40;;;;;;;1.40;0.60;;;32.50;34.40;;;;;;4936322;29;20050;-61
2023/06/04 17:14:07;;;;;;;2.95;1.60;;;33.00;33.80;;;;;;4953370;29;20479;-62
2023/06/04 17:16:32;;;;;;;1.70;0.70;;;32.50;34.20;;;;;;4931832;29;20458;-61
2023/06/04 17:18:58;;;;;;;2.20;0.70;;;31.90;34.30;;;;;;4954050;29;20102;-61
2023/06/04 17:21:24;;;;;;;0.90;0.57;;;31.70;33.60;;;;;;4950700;29;20031;-61
2023/06/04 17:23:49;;;;;;;1.50;0.77;;;31.70;34.10;;;;;;4903441;29;20036;-61
2023/06/04 17:26:15;;;;;;;1.90;0.88;;;31.30;33.90;;;;;;4946389;29;20031;-60
2023/06/04 17:28:41;;;;;;;0.80;0.47;;;30.80;33.70;;;;;;4904982;29;20035;-61
2023/06/04 17:31:07;;;;;;;1.27;0.68;;;32.00;34.20;;;;;;4945236;29;20027;-60
2023/06/04 17:33:34;;;;;;;1.80;0.63;;;31.30;34.00;;;;;;4953164;29;20071;-56
2023/06/04 17:35:59;;;;;;;1.15;0.50;;;31.30;34.50;;;;;;4949839;29;20103;-62
2023/06/04 17:38:25;;;;;;;1.05;0.68;;;31.10;34.30;;;;;;4953355;29;20039;-62
2023/06/04 17:40:51;;;;;;;1.40;0.57;;;30.60;34.10;;;;;;4936525;29;20497;-61
2023/06/04 17:43:17;;;;;;;0.95;0.55;;;30.30;35.30;;;;;;4940362;29;20035;-63
2023/06/04 17:45:43;;;;;;;1.30;0.70;;;29.90;35.00;;;;;;4941881;29;20487;-63
2023/06/04 17:48:08;;;;;;;2.67;1.08;;;30.20;35.40;;;;;;4952953;29;20031;-63
2023/06/04 17:50:35;;;;;;;2.33;0.90;;;30.20;35.60;;;;;;4951088;29;20090;-63
2023/06/04 17:53:01;;;;;;;5.10;0.85;;;29.60;36.00;;;;;;4941479;29;20709;-64
2023/06/04 17:55:27;;;;;;;3.15;0.88;;;29.90;35.80;;;;;;4913148;29;20071;-64
2023/06/04 17:57:55;;;;;;;0.95;0.60;;;29.60;36.00;;;;;;4941520;29;20055;-63
2023/06/04 18:00:21;;;;;;;2.75;0.77;;;30.60;35.50;;;;;;4940883;29;20028;-63
2023/06/04 18:02:46;;;;;;;2.28;0.95;;;29.90;35.60;;;;;;4925161;29;20043;-64
2023/06/04 18:05:12;;;;;;;1.52;0.55;;;29.70;36.30;;;;;;4938381;29;20042;-63
2023/06/04 18:07:38;;;;;;;1.08;0.40;;;30.30;36.60;;;;;;4948903;29;20521;-62
2023/06/04 18:10:05;;;;;;;1.17;0.50;;;29.50;36.90;;;;;;4951516;29;20114;-63
2023/06/04 18:12:34;;;;;;;4.43;0.55;;;29.60;37.00;;;;;;4949959;29;20031;-64
2023/06/04 18:15:00;;;;;;;1.27;0.68;;;29.60;37.00;;;;;;4951193;29;20114;-64
2023/06/04 18:17:25;;;;;;;2.88;0.60;;;29.50;37.30;;;;;;4949764;29;20065;-62
2023/06/04 18:19:52;;;;;;;1.30;0.50;;;29.60;38.10;;;;;;4951705;29;20039;-62
2023/06/04 18:22:17;;;;;;;1.83;0.57;;;29.30;37.70;;;;;;4950553;29;20428;-63
2023/06/04 18:24:43;;;;;;;1.38;0.57;;;28.90;38.00;;;;;;4934368;29;20071;-62
2023/06/04 18:27:09;;;;;;;2.75;0.90;;;28.70;38.50;;;;;;4949888;29;20035;-63
2023/06/04 18:29:35;;;;;;;1.58;0.65;;;28.90;38.60;;;;;;4952039;29;20031;-63
2023/06/04 18:32:00;;;;;;;1.15;0.68;;;29.60;38.60;;;;;;4932687;29;20070;-63
2023/06/04 18:34:28;;;;;;;2.75;0.90;;;28.80;38.80;;;;;;4952562;29;20069;-63
2023/06/04 18:36:56;;;;;;;1.85;0.90;;;27.80;39.20;;;;;;4948536;29;20554;-63
2023/06/04 18:39:23;;;;;;;4.55;0.82;;;27.70;39.80;;;;;;4953135;29;20078;-62
2023/06/04 18:41:51;;;;;;;3.28;1.33;;;27.10;40.20;;;;;;4946989;29;20059;-62
2023/06/04 18:44:17;;;;;;;2.78;0.98;;;26.70;41.20;;;;;;4952754;29;20119;-63
2023/06/04 18:46:43;;;;;;;7.72;1.48;;;26.90;41.00;;;;;;4947682;29;20106;-62
2023/06/04 18:49:09;;;;;;;4.22;1.67;;;26.70;41.20;;;;;;4935793;29;20070;-62
2023/06/04 18:51:36;;;;;;;4.30;1.70;;;26.90;42.20;;;;;;4942740;29;20475;-62
2023/06/04 18:54:03;;;;;;;2.08;0.85;;;26.50;42.70;;;;;;4933710;29;20031;-62
2023/06/04 18:56:28;;;;;;;15.38;8.25;;;26.50;43.00;;;;;;4933227;29;20023;-61
2023/06/04 18:58:55;;;;;;;4.90;2.53;;;26.20;43.50;;;;;;4917278;29;20035;-62
2023/06/04 19:01:21;;;;;;;2.05;0.77;;;26.00;43.40;;;;;;4927491;29;20034;-61
2023/06/04 19:03:47;;;;;;;2.35;1.30;;;25.70;44.10;;;;;;4917205;29;20035;-62